Terminal Aerodrome Forecast
Issued by NWS Newport/Morehead City, NC

Home | Current Version | Previous Version | Text Only | Print | Product List | Glossary On
Versions: 1 2 3 4 5 6 7 8 9 10 11 12 13 14 15 16 17 18 19 20 21
000
FTUS42 KMHX 301722
TAFEWN
TAF
KEWN 301722Z 3018/0118 35010KT P6SM VCSH BKN015 OVC025
     FM010700 VRB02KT 4SM BR VCSH OVC007
     FM011500 35005KT P6SM VCSH OVC015=

USA.gov is the U.S. government's official web portal to all federal, state and local government web resources and services.